Time;durP1;ratioP1;P1;durP2;ratioP2;P2;SDS_P1;SDS_P2;PMS_P1;PMS_P2;Temp;Humidity;BMP_temperature;BMP_pressure;BME280_temperature;BME280_humidity;BME280_pressure;Samples;Min_cycle;Max_cycle;Signal;HPM_P1;HPM_P2
2023/06/05 00:02:03;;;;;;;7.55;3.58;;;;;;;18.29;49.10;102100.63;5060873;28;20025;-64
2023/06/05 00:04:29;;;;;;;5.00;2.85;;;;;;;18.13;49.45;102097.72;5067668;28;20078;-65
2023/06/05 00:06:56;;;;;;;4.55;3.20;;;;;;;18.10;49.49;102100.25;5070512;28;20028;-64
2023/06/05 00:09:22;;;;;;;5.30;3.17;;;;;;;18.03;49.72;102102.44;5071112;28;20024;-64
2023/06/05 00:11:47;;;;;;;5.70;2.70;;;;;;;18.13;49.57;102105.31;5067428;28;20027;-64
2023/06/05 00:14:12;;;;;;;3.97;3.10;;;;;;;18.03;49.58;102103.28;5081366;28;20550;-64
2023/06/05 00:16:38;;;;;;;5.60;3.28;;;;;;;18.02;49.93;102104.41;5070619;28;20039;-64
2023/06/05 00:19:03;;;;;;;9.88;3.55;;;;;;;17.90;49.97;102099.00;5070981;28;20503;-64
2023/06/05 00:21:29;;;;;;;6.55;3.03;;;;;;;17.96;50.06;102107.47;5063375;28;20037;-64
2023/06/05 00:23:55;;;;;;;5.35;3.22;;;;;;;17.86;49.99;102102.63;5084652;28;20459;-63
2023/06/05 00:26:20;;;;;;;10.52;3.13;;;;;;;17.80;49.90;102098.97;5090735;28;20100;-64
2023/06/05 00:28:46;;;;;;;6.43;3.40;;;;;;;17.72;50.35;102098.56;5090686;28;20031;-64
2023/06/05 00:31:12;;;;;;;6.32;3.20;;;;;;;17.74;50.17;102094.41;5062921;28;20025;-64
2023/06/05 00:33:38;;;;;;;6.00;3.03;;;;;;;17.75;50.10;102095.28;5080834;28;20039;-64
2023/06/05 00:36:04;;;;;;;5.65;3.47;;;;;;;17.63;50.50;102103.88;5065706;28;20029;-65
2023/06/05 00:38:29;;;;;;;4.55;3.08;;;;;;;17.57;50.64;102099.34;5053608;28;20114;-64
2023/06/05 00:40:54;;;;;;;7.50;3.50;;;;;;;17.61;50.49;102095.72;5050145;28;20033;-64
2023/06/05 00:43:20;;;;;;;7.22;3.70;;;;;;;17.66;50.29;102098.56;5079372;28;20032;-64
2023/06/05 00:45:45;;;;;;;4.38;3.10;;;;;;;17.59;50.43;102099.91;5078197;28;20060;-64
2023/06/05 00:48:10;;;;;;;12.07;3.95;;;;;;;17.47;50.79;102093.66;5070941;28;20145;-64
2023/06/05 00:50:36;;;;;;;7.10;3.42;;;;;;;17.43;50.80;102096.13;5067486;28;20024;-64
2023/06/05 00:53:03;;;;;;;3.90;3.40;;;;;;;17.35;51.22;102093.84;5070414;28;20125;-64
2023/06/05 00:55:29;;;;;;;5.78;3.13;;;;;;;17.43;51.27;102105.41;5068873;28;20512;-65
2023/06/05 00:57:55;;;;;;;5.97;3.50;;;;;;;17.46;50.88;102097.56;5052500;28;20367;-65
2023/06/05 01:00:21;;;;;;;5.05;3.35;;;;;;;17.52;50.77;102104.91;5062592;28;20468;-64
2023/06/05 01:02:47;;;;;;;6.35;3.50;;;;;;;17.45;50.87;102105.16;5068286;28;20028;-65
2023/06/05 01:05:13;;;;;;;5.50;3.63;;;;;;;17.48;50.92;102092.53;5069897;28;20047;-65
2023/06/05 01:07:39;;;;;;;5.97;3.85;;;;;;;17.48;50.78;102100.94;5057920;28;20044;-64
2023/06/05 01:10:08;;;;;;;5.30;3.53;;;;;;;17.52;50.64;102099.28;5049181;28;20028;-64
2023/06/05 01:13:03;;;;;;;4.55;3.60;;;;;;;17.44;50.45;102092.22;5069311;28;20064;-64
2023/06/05 01:15:29;;;;;;;6.05;3.55;;;;;;;17.29;51.29;102092.09;5094721;28;20039;-65
2023/06/05 01:17:59;;;;;;;6.10;3.72;;;;;;;17.37;51.07;102089.66;5084447;28;20032;-64
2023/06/05 01:20:34;;;;;;;6.80;3.50;;;;;;;17.36;50.98;102082.31;5094099;28;20059;-64
2023/06/05 01:23:01;;;;;;;8.52;3.80;;;;;;;17.35;51.02;102083.44;5069904;28;20043;-64
2023/06/05 01:25:28;;;;;;;6.10;3.90;;;;;;;17.31;51.18;102087.91;5082515;28;20052;-64
2023/06/05 01:27:57;;;;;;;7.68;3.67;;;;;;;17.25;51.46;102085.31;5090832;28;20040;-65
2023/06/05 01:31:00;;;;;;;4.38;3.63;;;;;;;17.22;51.35;102086.72;5092089;28;20387;-64
2023/06/05 01:33:31;;;;;;;5.90;3.72;;;;;;;17.10;51.75;102084.09;5061416;28;20140;-64
2023/06/05 01:36:04;;;;;;;7.95;3.85;;;;;;;17.05;51.78;102089.63;5076624;28;20048;-64
2023/06/05 01:38:32;;;;;;;4.95;3.45;;;;;;;16.99;52.02;102079.50;5093199;28;20476;-65
2023/06/05 01:40:58;;;;;;;6.15;4.05;;;;;;;17.02;51.99;102086.56;5070842;28;20056;-64
2023/06/05 01:43:23;;;;;;;7.53;4.63;;;;;;;16.81;52.25;102086.31;5073218;28;20048;-64
2023/06/05 01:45:50;;;;;;;5.75;3.85;;;;;;;16.90;52.15;102079.16;5074580;28;20102;-64
2023/06/05 01:48:16;;;;;;;8.18;4.03;;;;;;;16.92;52.24;102079.72;5090855;28;20083;-64
2023/06/05 01:50:42;;;;;;;6.68;4.00;;;;;;;16.98;52.03;102074.13;5080031;28;20571;-64
2023/06/05 01:53:07;;;;;;;6.68;4.05;;;;;;;16.80;52.35;102073.44;5073015;28;20052;-64
2023/06/05 01:55:33;;;;;;;4.97;4.20;;;;;;;16.88;52.32;102075.75;5071146;28;20388;-64
2023/06/05 01:57:59;;;;;;;6.70;3.75;;;;;;;16.93;52.25;102069.34;5086887;28;20036;-64
2023/06/05 02:00:24;;;;;;;6.05;4.30;;;;;;;16.87;52.18;102068.47;5066617;28;20482;-64
2023/06/05 02:02:50;;;;;;;6.32;4.20;;;;;;;16.76;52.46;102071.44;5076367;28;20041;-64
2023/06/05 02:05:17;;;;;;;6.70;4.47;;;;;;;16.74;52.66;102068.91;5066017;28;20033;-64
2023/06/05 02:07:48;;;;;;;5.75;4.00;;;;;;;16.60;52.97;102067.59;5068618;28;20111;-64
2023/06/05 02:10:14;;;;;;;5.95;4.30;;;;;;;16.61;52.74;102063.66;5078879;28;20452;-64
2023/06/05 02:12:42;;;;;;;5.97;4.45;;;;;;;16.48;53.16;102062.13;5072888;28;20076;-64
2023/06/05 02:15:09;;;;;;;6.82;4.47;;;;;;;16.48;53.25;102059.34;5070574;28;20079;-64
2023/06/05 02:17:34;;;;;;;6.78;4.20;;;;;;;16.51;53.25;102058.81;5065805;28;20041;-64
2023/06/05 02:20:00;;;;;;;6.97;4.40;;;;;;;16.45;53.36;102055.09;5071278;28;20047;-64
2023/06/05 02:22:25;;;;;;;8.93;5.00;;;;;;;16.53;53.18;102061.34;5063465;28;20070;-64
2023/06/05 02:24:54;;;;;;;6.55;4.82;;;;;;;16.45;53.43;102063.50;5065633;28;20032;-64
2023/06/05 02:27:19;;;;;;;9.07;4.88;;;;;;;16.41;53.48;102059.53;5052099;28;20032;-65
2023/06/05 02:29:45;;;;;;;8.00;5.00;;;;;;;16.51;53.28;102057.97;5052352;28;20053;-64
2023/06/05 02:32:11;;;;;;;6.40;4.90;;;;;;;16.42;53.58;102054.75;5056548;28;20024;-65
2023/06/05 02:34:37;;;;;;;9.00;5.05;;;;;;;16.33;53.83;102057.19;5069165;28;20391;-64
2023/06/05 02:37:03;;;;;;;6.80;5.05;;;;;;;16.33;53.78;102051.59;5066478;28;20044;-65
2023/06/05 02:39:28;;;;;;;8.18;5.15;;;;;;;16.34;53.71;102053.28;5072671;28;20020;-64
2023/06/05 02:41:55;;;;;;;7.03;5.10;;;;;;;16.34;53.57;102052.44;5070142;28;20024;-64
2023/06/05 02:44:21;;;;;;;7.38;5.18;;;;;;;16.26;53.93;102050.94;5071283;28;20067;-64
2023/06/05 02:46:46;;;;;;;11.77;5.50;;;;;;;16.19;54.02;102045.56;5092446;28;20476;-65
2023/06/05 02:49:11;;;;;;;6.50;4.90;;;;;;;16.14;54.23;102044.63;5092223;28;20027;-64
2023/06/05 02:51:36;;;;;;;7.18;4.90;;;;;;;16.20;54.10;102047.25;5078928;28;20086;-64
2023/06/05 02:54:02;;;;;;;9.38;5.20;;;;;;;16.15;54.24;102050.00;5070361;28;20024;-64
2023/06/05 02:56:27;;;;;;;7.43;5.35;;;;;;;16.16;54.41;102040.47;5059041;28;20040;-64
2023/06/05 02:58:53;;;;;;;10.15;5.40;;;;;;;16.07;54.43;102042.06;5071664;28;20652;-64
2023/06/05 03:01:21;;;;;;;8.07;5.65;;;;;;;16.16;54.26;102039.63;5069884;28;20024;-64
2023/06/05 03:03:48;;;;;;;9.13;5.90;;;;;;;16.02;54.45;102046.72;5071616;28;20105;-64
2023/06/05 03:06:17;;;;;;;8.45;5.80;;;;;;;15.95;54.79;102039.38;5073946;28;20040;-65
2023/06/05 03:08:43;;;;;;;7.43;5.97;;;;;;;15.96;54.51;102045.84;5087135;28;20159;-64
2023/06/05 03:11:08;;;;;;;10.70;5.95;;;;;;;15.92;55.00;102045.50;5074739;28;20036;-64
2023/06/05 03:13:34;;;;;;;7.82;5.65;;;;;;;15.93;54.99;102047.19;5071624;28;20055;-65
2023/06/05 03:16:03;;;;;;;9.50;6.15;;;;;;;15.95;54.86;102045.00;5070371;28;20358;-64
2023/06/05 03:18:29;;;;;;;7.63;6.10;;;;;;;15.94;54.66;102048.88;5072080;28;20034;-64
2023/06/05 03:20:56;;;;;;;6.95;5.30;;;;;;;15.80;55.13;102044.78;5085242;28;20020;-64
2023/06/05 03:23:27;;;;;;;8.00;5.88;;;;;;;15.68;55.58;102044.06;5074538;28;20442;-64
2023/06/05 03:25:53;;;;;;;6.95;5.85;;;;;;;15.74;55.30;102042.16;5075126;28;20032;-64
2023/06/05 03:28:19;;;;;;;8.20;6.18;;;;;;;15.68;55.72;102033.69;5066511;28;20029;-65
2023/06/05 03:30:45;;;;;;;10.13;6.00;;;;;;;15.69;55.41;102032.59;5069856;28;20043;-64
2023/06/05 03:33:11;;;;;;;10.32;6.57;;;;;;;15.61;55.81;102034.97;5079886;28;20028;-64
2023/06/05 03:35:36;;;;;;;7.03;6.03;;;;;;;15.66;55.66;102029.47;5080159;28;20050;-64
2023/06/05 03:38:02;;;;;;;7.05;5.93;;;;;;;15.66;55.63;102029.47;5074585;28;20032;-64
2023/06/05 03:40:28;;;;;;;8.18;6.03;;;;;;;15.71;55.61;102032.31;5078484;28;20039;-64
2023/06/05 03:42:53;;;;;;;9.55;6.18;;;;;;;15.56;56.01;102020.88;5080747;28;20032;-65
2023/06/05 03:45:18;;;;;;;9.57;6.15;;;;;;;15.60;56.01;102019.25;5069546;28;20059;-64
2023/06/05 03:47:46;;;;;;;9.10;6.15;;;;;;;15.61;55.74;102024.63;5068067;28;20364;-64
2023/06/05 03:50:12;;;;;;;8.50;6.53;;;;;;;15.66;55.70;102032.25;5077165;28;20065;-64
2023/06/05 03:52:39;;;;;;;7.55;6.18;;;;;;;15.59;55.85;102034.34;5090873;28;20016;-64
2023/06/05 03:55:07;;;;;;;7.95;6.47;;;;;;;15.62;55.70;102037.50;5075100;28;20028;-64
2023/06/05 03:57:33;;;;;;;9.25;6.45;;;;;;;15.56;55.82;102035.75;5051374;28;20100;-64
2023/06/05 03:59:58;;;;;;;7.35;6.10;;;;;;;15.56;55.76;102030.16;5059140;28;20090;-64
2023/06/05 04:02:23;;;;;;;11.30;7.45;;;;;;;15.44;56.11;102033.06;5070611;28;20032;-64
2023/06/05 04:04:50;;;;;;;8.65;6.63;;;;;;;15.41;56.00;102030.75;5066863;28;20033;-64
2023/06/05 04:07:16;;;;;;;8.75;6.95;;;;;;;15.54;55.96;102039.88;5069302;28;20120;-64
2023/06/05 04:09:41;;;;;;;7.30;6.45;;;;;;;15.51;56.15;102032.00;5090803;28;20107;-64
2023/06/05 04:12:06;;;;;;;8.73;6.60;;;;;;;15.54;56.18;102031.50;5070178;28;20051;-64
2023/06/05 04:14:32;;;;;;;12.18;7.30;;;;;;;15.50;56.20;102036.75;5070135;28;20035;-64
2023/06/05 04:16:57;;;;;;;9.25;7.15;;;;;;;15.41;56.33;102025.16;5068901;28;20025;-64
2023/06/05 04:19:22;;;;;;;13.23;7.60;;;;;;;15.38;56.54;102031.28;5074109;28;20020;-64
2023/06/05 04:21:48;;;;;;;8.55;6.97;;;;;;;15.28;56.70;102045.09;5071098;28;20080;-65
2023/06/05 04:24:13;;;;;;;11.38;7.30;;;;;;;15.33;56.63;102045.19;5066715;28;20033;-64
2023/06/05 04:26:43;;;;;;;7.95;7.07;;;;;;;15.17;57.05;102044.09;5081837;28;20036;-64
2023/06/05 04:29:16;;;;;;;10.27;7.13;;;;;;;15.17;57.15;102051.66;5078219;28;20455;-64
2023/06/05 04:31:50;;;;;;;9.40;7.25;;;;;;;15.20;57.43;102049.16;5072999;28;20444;-64
2023/06/05 04:34:17;;;;;;;8.73;7.22;;;;;;;15.30;56.95;102050.44;5065332;28;20021;-64
2023/06/05 04:36:43;;;;;;;8.95;7.40;;;;;;;15.36;56.62;102046.59;5059134;28;20024;-64
2023/06/05 04:39:14;;;;;;;9.07;7.35;;;;;;;15.36;56.82;102047.44;5061193;28;20039;-64
2023/06/05 04:41:44;;;;;;;9.07;7.53;;;;;;;15.22;57.24;102051.72;5067319;28;20114;-64
2023/06/05 04:44:12;;;;;;;9.88;7.80;;;;;;;15.33;56.82;102050.78;5070306;28;20032;-66
2023/06/05 04:46:39;;;;;;;8.45;7.53;;;;;;;15.30;57.08;102056.88;5056097;28;20392;-64
2023/06/05 04:49:04;;;;;;;11.05;7.40;;;;;;;15.24;57.28;102060.69;5068653;28;20060;-64
2023/06/05 04:51:29;;;;;;;11.95;8.13;;;;;;;15.30;56.95;102058.84;5070021;28;20521;-64
2023/06/05 04:53:55;;;;;;;8.35;7.55;;;;;;;15.28;56.89;102058.22;5070315;28;20028;-64
2023/06/05 04:56:24;;;;;;;12.32;8.48;;;;;;;15.28;57.00;102061.03;5059360;28;20028;-66
2023/06/05 04:58:51;;;;;;;10.35;8.07;;;;;;;15.39;56.94;102057.28;5068393;28;20024;-64
2023/06/05 05:01:16;;;;;;;10.75;8.65;;;;;;;15.33;56.86;102056.38;5055471;28;20033;-64
2023/06/05 05:03:42;;;;;;;11.60;9.45;;;;;;;15.32;57.25;102059.41;5047987;28;20059;-64
2023/06/05 05:06:08;;;;;;;10.32;8.35;;;;;;;15.42;57.17;102059.59;5050121;28;20381;-64
2023/06/05 05:08:33;;;;;;;15.05;9.20;;;;;;;15.45;56.75;102061.88;5049533;28;20079;-64
2023/06/05 05:10:58;;;;;;;11.57;8.90;;;;;;;15.44;56.91;102066.63;5049515;28;20029;-64
2023/06/05 05:13:23;;;;;;;11.45;8.70;;;;;;;15.50;56.67;102052.69;5066279;28;20044;-64
2023/06/05 05:15:52;;;;;;;10.07;9.05;;;;;;;15.52;56.67;102058.88;5067616;28;20021;-64
2023/06/05 05:18:18;;;;;;;13.35;9.52;;;;;;;15.56;56.64;102054.47;5065575;28;20040;-64
2023/06/05 05:20:43;;;;;;;11.55;9.60;;;;;;;15.52;56.57;102050.47;5068490;28;20037;-64
2023/06/05 05:23:09;;;;;;;14.73;9.65;;;;;;;15.59;56.49;102051.16;5067452;28;20105;-65
2023/06/05 05:25:34;;;;;;;11.75;10.13;;;;;;;15.51;56.71;102055.22;5070080;28;20119;-64
2023/06/05 05:27:59;;;;;;;10.55;8.88;;;;;;;15.66;56.31;102052.69;5069696;28;20039;-64
2023/06/05 05:30:24;;;;;;;12.88;9.55;;;;;;;15.72;56.23;102050.84;5069610;28;20032;-65
2023/06/05 05:32:50;;;;;;;10.43;9.38;;;;;;;15.79;55.81;102045.88;5067473;28;20060;-65
2023/06/05 05:35:15;;;;;;;14.27;10.10;;;;;;;15.82;55.72;102056.56;5061721;28;20091;-64
2023/06/05 05:37:40;;;;;;;13.95;9.85;;;;;;;15.86;55.70;102051.28;5062131;28;20046;-64
2023/06/05 05:40:06;;;;;;;11.75;9.88;;;;;;;15.86;55.93;102048.47;5063241;28;20404;-63
2023/06/05 05:42:32;;;;;;;15.05;10.20;;;;;;;15.94;55.29;102051.66;5068974;28;20457;-64
2023/06/05 05:44:57;;;;;;;13.27;10.15;;;;;;;15.99;55.24;102050.88;5069933;28;20035;-64
2023/06/05 05:47:22;;;;;;;11.63;9.75;;;;;;;16.02;55.07;102046.72;5079735;28;20073;-63
2023/06/05 05:49:48;;;;;;;13.60;9.60;;;;;;;16.01;55.20;102059.03;5065870;28;20032;-63
2023/06/05 05:52:13;;;;;;;14.57;10.10;;;;;;;16.06;55.44;102053.50;5056692;28;20036;-64
2023/06/05 05:54:38;;;;;;;12.57;10.15;;;;;;;16.05;55.09;102049.84;5068020;28;20036;-64
2023/06/05 05:57:04;;;;;;;12.35;10.00;;;;;;;16.18;54.90;102048.59;5068631;28;20042;-64
2023/06/05 05:59:30;;;;;;;13.38;10.35;;;;;;;16.17;54.72;102050.56;5059344;28;20044;-65
2023/06/05 06:01:58;;;;;;;15.35;11.05;;;;;;;16.18;54.54;102059.81;5055309;28;20024;-62
2023/06/05 06:04:23;;;;;;;11.82;10.52;;;;;;;16.27;54.53;102061.06;5051390;28;20036;-63
2023/06/05 06:06:52;;;;;;;12.93;10.25;;;;;;;16.28;54.45;102062.75;5052387;28;20487;-64
2023/06/05 06:09:18;;;;;;;13.48;10.30;;;;;;;16.39;54.06;102064.56;5056143;28;20559;-64
2023/06/05 06:11:43;;;;;;;13.68;10.23;;;;;;;16.36;54.21;102067.03;5068530;28;20039;-63
2023/06/05 06:14:10;;;;;;;12.13;10.85;;;;;;;16.37;54.19;102071.53;5062337;28;20032;-64
2023/06/05 06:16:37;;;;;;;13.38;10.77;;;;;;;16.38;53.95;102070.41;5067476;28;20411;-64
2023/06/05 06:19:03;;;;;;;15.05;10.63;;;;;;;16.43;53.87;102078.91;5068291;28;20033;-65
2023/06/05 06:21:29;;;;;;;11.73;9.93;;;;;;;16.40;54.15;102069.06;5068651;28;20468;-64
2023/06/05 06:23:54;;;;;;;11.95;10.25;;;;;;;16.51;53.63;102071.97;5075692;28;20032;-65
2023/06/05 06:26:19;;;;;;;13.13;10.98;;;;;;;16.53;53.46;102067.78;5068096;28;20029;-65
2023/06/05 06:28:44;;;;;;;15.27;10.73;;;;;;;16.57;53.32;102063.34;5082602;28;20028;-66
2023/06/05 06:31:10;;;;;;;12.15;10.00;;;;;;;16.64;53.40;102068.75;5069665;28;20460;-65
2023/06/05 06:33:36;;;;;;;12.45;10.90;;;;;;;16.68;53.64;102069.91;5073524;28;20024;-65
2023/06/05 06:36:02;;;;;;;12.38;10.57;;;;;;;16.78;53.32;102072.00;5068827;28;20035;-65
2023/06/05 06:38:30;;;;;;;8.23;6.45;;;;;;;17.03;55.25;102072.25;5067818;28;20113;-64
2023/06/05 06:40:59;;;;;;;12.43;8.93;;;;;;;17.06;53.22;102077.31;5049742;28;20171;-62
2023/06/05 06:43:24;;;;;;;6.80;5.85;;;;;;;17.31;56.45;102073.03;5058811;28;20116;-64
2023/06/05 06:45:51;;;;;;;8.90;7.18;;;;;;;17.39;55.83;102076.19;5055325;28;20528;-63
2023/06/05 06:48:17;;;;;;;12.20;7.85;;;;;;;17.49;54.79;102074.56;5051991;28;20118;-64
2023/06/05 06:50:42;;;;;;;9.88;6.70;;;;;;;17.68;54.54;102067.38;5080747;28;20163;-65
2023/06/05 06:53:08;;;;;;;9.02;6.45;;;;;;;17.79;53.63;102074.78;5062110;28;20025;-64
2023/06/05 06:55:34;;;;;;;9.02;7.10;;;;;;;17.85;52.24;102079.34;5063172;28;20036;-64
2023/06/05 06:57:59;;;;;;;11.40;8.32;;;;;;;17.90;51.71;102081.31;5059331;28;20519;-64
2023/06/05 07:00:24;;;;;;;9.10;7.15;;;;;;;18.10;52.46;102077.75;5075679;28;20561;-65
2023/06/05 07:02:50;;;;;;;10.35;8.40;;;;;;;18.13;51.96;102080.03;5070376;28;20043;-63
2023/06/05 07:05:15;;;;;;;12.68;10.30;;;;;;;18.12;51.46;102083.97;5067409;28;20035;-63
2023/06/05 07:07:40;;;;;;;10.90;7.82;;;;;;;18.29;50.58;102090.22;5052890;28;20707;-63
2023/06/05 07:10:06;;;;;;;11.68;10.45;;;;;;;18.18;50.98;102091.28;5048373;28;20056;-63
2023/06/05 07:12:31;;;;;;;13.27;10.68;;;;;;;18.19;50.11;102083.69;5048984;28;20135;-63
2023/06/05 07:14:56;;;;;;;11.15;8.65;;;;;;;18.25;50.24;102091.88;5064353;28;20115;-63
2023/06/05 07:17:22;;;;;;;12.88;7.78;;;;;;;18.29;51.18;102093.03;5069765;28;20066;-63
2023/06/05 07:19:47;;;;;;;10.23;8.32;;;;;;;18.36;50.21;102095.59;5061327;28;20078;-64
2023/06/05 07:22:12;;;;;;;12.07;8.98;;;;;;;18.40;50.56;102094.75;5068172;28;20021;-63
2023/06/05 07:24:38;;;;;;;10.05;6.13;;;;;;;18.58;50.16;102099.00;5059230;28;20039;-63
2023/06/05 07:27:04;;;;;;;10.93;8.45;;;;;;;18.59;49.97;102103.53;5061328;28;20043;-63
2023/06/05 07:29:30;;;;;;;12.55;8.45;;;;;;;18.64;49.40;102094.25;5069446;28;20519;-63
2023/06/05 07:31:56;;;;;;;11.30;8.13;;;;;;;18.67;49.63;102090.91;5070508;28;20022;-62
2023/06/05 07:34:23;;;;;;;10.05;8.23;;;;;;;18.75;50.08;102093.19;5081387;28;20032;-62
2023/06/05 07:36:50;;;;;;;11.65;8.30;;;;;;;18.81;49.24;102103.31;5074207;28;20074;-62
2023/06/05 07:39:16;;;;;;;7.97;6.28;;;;;;;18.99;52.30;102099.16;5068955;28;20035;-63
2023/06/05 07:41:41;;;;;;;11.48;7.82;;;;;;;18.93;49.59;102096.59;5069072;28;20032;-63
2023/06/05 07:44:09;;;;;;;13.00;10.63;;;;;;;18.78;48.71;102092.63;5069010;28;20016;-65
2023/06/05 07:46:35;;;;;;;15.15;10.77;;;;;;;18.80;48.71;102101.66;5069987;28;20032;-66
2023/06/05 07:49:00;;;;;;;11.60;8.95;;;;;;;18.86;49.02;102094.03;5068143;28;20384;-64
2023/06/05 07:51:26;;;;;;;11.85;10.63;;;;;;;18.91;48.96;102096.03;5051077;28;20028;-65
2023/06/05 07:53:51;;;;;;;12.73;8.45;;;;;;;19.00;48.79;102097.16;5055760;28;20023;-65
2023/06/05 07:56:16;;;;;;;10.43;6.63;;;;;;;19.17;49.94;102091.25;5066593;28;20032;-64
2023/06/05 07:58:42;;;;;;;9.35;6.88;;;;;;;19.31;49.18;102090.44;5060962;28;20111;-64
2023/06/05 08:01:07;;;;;;;13.90;9.73;;;;;;;19.26;48.01;102098.03;5071905;28;20028;-65
2023/06/05 08:03:33;;;;;;;13.32;9.25;;;;;;;19.27;47.89;102094.09;5081564;28;20016;-65
2023/06/05 08:05:59;;;;;;;15.18;9.82;;;;;;;19.23;47.80;102093.81;5085765;28;20028;-65
2023/06/05 08:08:24;;;;;;;12.80;9.25;;;;;;;19.25;48.01;102093.50;5082113;28;20032;-64
2023/06/05 08:10:52;;;;;;;9.38;7.35;;;;;;;19.36;47.75;102092.38;5047639;28;20025;-63
2023/06/05 08:13:18;;;;;;;13.43;9.27;;;;;;;19.35;47.68;102091.56;5049495;28;20048;-63
2023/06/05 08:15:43;;;;;;;12.95;9.75;;;;;;;19.36;47.35;102092.38;5065784;28;20033;-64
2023/06/05 08:18:08;;;;;;;7.47;5.35;;;;;;;19.66;48.37;102091.56;5063668;28;20043;-62
2023/06/05 08:20:34;;;;;;;11.40;9.63;;;;;;;19.56;47.15;102081.09;5067393;28;20032;-61
2023/06/05 08:23:00;;;;;;;8.50;5.38;;;;;;;19.83;48.18;102089.25;5057487;28;20089;-61
2023/06/05 08:25:26;;;;;;;8.52;6.05;;;;;;;19.83;47.88;102083.63;5058408;28;20115;-58
2023/06/05 08:27:52;;;;;;;13.23;8.13;;;;;;;19.80;46.63;102078.53;5060902;28;20120;-57
2023/06/05 08:30:17;;;;;;;13.30;8.75;;;;;;;19.75;47.03;102075.75;5060477;28;20125;-60
2023/06/05 08:32:43;;;;;;;14.00;9.20;;;;;;;19.79;47.34;102074.06;5068973;28;20031;-61
2023/06/05 08:35:08;;;;;;;12.73;9.35;;;;;;;19.84;46.51;102073.19;5067172;28;20028;-57
2023/06/05 08:37:34;;;;;;;11.10;7.40;;;;;;;19.90;46.44;102069.25;5067635;28;20059;-61
2023/06/05 08:40:05;;;;;;;11.65;6.72;;;;;;;20.01;47.26;102059.63;5069111;28;20028;-61
2023/06/05 08:42:31;;;;;;;9.52;6.10;;;;;;;20.08;46.84;102053.66;5067234;28;20102;-60
2023/06/05 08:44:56;;;;;;;8.23;6.43;;;;;;;20.22;47.25;102060.38;5057853;28;20140;-61
2023/06/05 08:47:24;;;;;;;13.70;5.80;;;;;;;20.31;47.16;102052.97;5066312;28;20028;-61
2023/06/05 08:49:51;;;;;;;13.43;8.57;;;;;;;20.26;46.36;102055.84;5066552;28;20029;-61
2023/06/05 08:52:20;;;;;;;10.90;7.60;;;;;;;20.33;46.21;102059.19;5069275;28;20052;-61
2023/06/05 08:54:46;;;;;;;10.18;6.28;;;;;;;20.40;46.54;102055.22;5067039;28;20438;-61
2023/06/05 08:57:11;;;;;;;9.23;6.50;;;;;;;20.45;47.08;102064.50;5060646;28;20465;-61
2023/06/05 08:59:38;;;;;;;9.93;4.80;;;;;;;20.51;46.84;102063.34;5059317;28;20122;-61
2023/06/05 09:02:04;;;;;;;7.03;5.00;;;;;;;20.58;46.65;102051.75;5059779;28;20104;-62
2023/06/05 09:04:32;;;;;;;12.13;6.90;;;;;;;20.66;46.96;102053.09;5061009;28;20027;-61
2023/06/05 09:06:58;;;;;;;13.27;8.60;;;;;;;20.54;45.35;102057.13;5062313;28;20039;-62
2023/06/05 09:09:25;;;;;;;10.10;7.85;;;;;;;20.48;45.79;102061.09;5065536;28;20233;-61
2023/06/05 09:12:08;;;;;;;10.05;6.30;;;;;;;20.59;46.25;102050.59;5062135;28;20029;-60
2023/06/05 09:14:34;;;;;;;11.95;6.68;;;;;;;20.59;45.79;102050.59;5068943;28;20029;-61
2023/06/05 09:17:00;;;;;;;10.30;6.80;;;;;;;20.60;45.13;102055.13;5066557;28;20502;-61
2023/06/05 09:19:38;;;;;;;10.07;6.47;;;;;;;20.62;45.33;102058.50;5060935;28;20472;-62
2023/06/05 09:22:06;;;;;;;8.05;4.95;;;;;;;20.74;45.95;102050.50;5063880;28;20012;-61
2023/06/05 09:24:31;;;;;;;8.30;7.10;;;;;;;20.73;44.79;102048.00;5080432;28;20029;-61
2023/06/05 09:27:11;;;;;;;9.40;5.72;;;;;;;20.78;45.08;102048.78;5070209;28;20346;-61
2023/06/05 09:29:39;;;;;;;12.35;6.97;;;;;;;20.72;44.62;102057.59;5066944;28;20059;-61
2023/06/05 09:32:14;;;;;;;7.72;6.35;;;;;;;20.77;44.98;102052.75;5067978;28;20491;-61
2023/06/05 09:34:40;;;;;;;10.27;6.47;;;;;;;20.81;44.53;102041.72;5072328;28;20039;-61
2023/06/05 09:37:11;;;;;;;10.27;7.15;;;;;;;20.87;45.10;102045.34;5080551;28;20028;-61
2023/06/05 09:39:38;;;;;;;10.93;6.47;;;;;;;20.92;44.81;102046.16;5080336;28;20069;-60
2023/06/05 09:42:04;;;;;;;8.75;6.88;;;;;;;20.89;45.27;102040.25;5064274;28;20039;-60
2023/06/05 09:44:31;;;;;;;11.77;6.45;;;;;;;20.94;45.55;102041.03;5073962;28;20381;-60
2023/06/05 09:47:02;;;;;;;11.20;5.75;;;;;;;21.05;45.59;102038.97;5053881;28;20063;-60
2023/06/05 09:49:32;;;;;;;9.85;6.90;;;;;;;21.01;44.51;102032.25;5081586;28;20035;-60
2023/06/05 09:51:59;;;;;;;11.02;6.55;;;;;;;21.06;44.70;102037.84;5072436;28;20432;-61
2023/06/05 09:54:29;;;;;;;10.13;5.15;;;;;;;21.11;44.91;102040.63;5071035;28;20043;-62
2023/06/05 09:57:02;;;;;;;8.15;5.13;;;;;;;21.21;45.01;102037.72;5068109;28;20044;-62
2023/06/05 09:59:31;;;;;;;9.07;6.72;;;;;;;21.19;43.75;102037.19;5068949;28;20029;-61
2023/06/05 10:01:59;;;;;;;10.85;5.75;;;;;;;21.27;44.16;102038.53;5072847;28;20110;-62
2023/06/05 10:04:29;;;;;;;9.95;5.80;;;;;;;21.23;44.41;102035.44;5070700;28;20086;-62
2023/06/05 10:07:01;;;;;;;11.57;6.55;;;;;;;21.26;44.04;102037.69;5062566;28;20572;-62
2023/06/05 10:09:28;;;;;;;12.30;6.83;;;;;;;21.33;44.05;102026.06;5069499;28;20070;-61
2023/06/05 10:11:54;;;;;;;10.55;6.50;;;;;;;21.36;43.79;102025.47;5065383;28;20476;-62
2023/06/05 10:14:20;;;;;;;12.20;6.78;;;;;;;21.41;44.54;102022.56;5061905;28;20032;-61
2023/06/05 10:16:53;;;;;;;9.90;5.45;;;;;;;21.46;44.18;102031.03;5058577;28;20035;-61
2023/06/05 10:19:21;;;;;;;10.63;5.82;;;;;;;21.55;44.08;102025.56;5063285;28;20034;-61
2023/06/05 10:21:48;;;;;;;8.50;5.95;;;;;;;21.55;43.65;102015.09;5076003;28;20472;-61
2023/06/05 10:24:19;;;;;;;9.82;6.80;;;;;;;21.54;43.68;102018.22;5076573;28;20029;-60
2023/06/05 10:27:09;;;;;;;9.90;6.17;;;;;;;21.63;43.78;102026.88;5066627;28;20032;-61
2023/06/05 10:30:12;;;;;;;9.27;5.82;;;;;;;21.72;44.30;102013.78;5072657;28;20302;-64
2023/06/05 10:32:57;;;;;;;11.68;6.88;;;;;;;21.76;44.17;102009.19;5069921;28;20499;-62
2023/06/05 10:36:00;;;;;;;10.05;6.10;;;;;;;21.78;43.89;102007.78;5071297;28;20047;-61
2023/06/05 10:38:27;;;;;;;9.82;6.43;;;;;;;21.78;43.97;102018.25;5072371;28;20040;-61
2023/06/05 10:40:54;;;;;;;8.20;6.50;;;;;;;21.79;43.62;102020.75;5076364;28;20035;-60
2023/06/05 10:43:27;;;;;;;10.80;6.75;;;;;;;21.80;43.42;102027.25;5077369;28;20024;-60
2023/06/05 10:45:52;;;;;;;;;;;;;;;21.89;43.96;102018.94;5082260;28;20380;-60
2023/06/05 10:48:18;;;;;;;9.98;5.75;;;;;;;21.90;43.12;102015.81;5077081;28;19923;-60
2023/06/05 10:50:43;;;;;;;10.57;5.80;;;;;;;22.00;43.50;102023.31;5067918;28;20108;-60
2023/06/05 10:53:49;;;;;;;10.20;6.22;;;;;;;22.02;43.17;102006.91;5071592;28;20472;-61
2023/06/05 10:56:56;;;;;;;9.05;4.88;;;;;;;22.08;42.64;102008.50;5067841;28;20032;-62
2023/06/05 10:59:23;;;;;;;7.93;5.20;;;;;;;22.11;42.11;102002.25;5071579;28;20028;-60
2023/06/05 11:02:16;;;;;;;7.85;5.20;;;;;;;22.16;41.95;102007.03;5067571;28;20514;-61
2023/06/05 11:04:42;;;;;;;10.05;4.97;;;;;;;22.25;41.41;101993.91;5070557;28;20430;-61
2023/06/05 11:07:21;;;;;;;6.95;5.13;;;;;;;22.28;41.96;102004.59;5071712;28;20480;-60
2023/06/05 11:10:01;;;;;;;11.52;5.15;;;;;;;22.35;42.10;101996.56;5072261;28;20418;-61
2023/06/05 11:12:39;;;;;;;7.28;5.32;;;;;;;22.41;41.86;102003.03;5069791;28;20049;-60
2023/06/05 11:15:06;;;;;;;8.23;6.00;;;;;;;22.37;41.15;101996.28;5061929;28;20052;-61
2023/06/05 11:17:32;;;;;;;11.95;5.60;;;;;;;22.40;41.51;101992.81;5084754;28;20032;-60
2023/06/05 11:20:05;;;;;;;7.95;4.45;;;;;;;22.44;41.28;101988.25;5077098;28;20066;-61
2023/06/05 11:22:31;;;;;;;10.18;5.30;;;;;;;22.49;41.59;101991.00;5069815;28;20028;-60
2023/06/05 11:25:18;;;;;;;8.73;5.32;;;;;;;22.51;41.58;101981.06;5052160;28;20072;-61